sensor_id;sensor_type;location;lat;lon;timestamp;P1;durP1;ratioP1;P2;durP2;ratioP2
18360;SDS011;9308;48.550;9.108;2023-04-03T00:00:46;6.57;;;6.07;;
18360;SDS011;9308;48.550;9.108;2023-04-03T00:03:11;6.73;;;6.17;;
18360;SDS011;9308;48.550;9.108;2023-04-03T00:05:37;6.27;;;5.87;;
18360;SDS011;9308;48.550;9.108;2023-04-03T00:08:02;5.57;;;5.17;;
18360;SDS011;9308;48.550;9.108;2023-04-03T00:10:29;6.73;;;6.00;;
18360;SDS011;9308;48.550;9.108;2023-04-03T00:12:55;5.97;;;5.50;;
18360;SDS011;9308;48.550;9.108;2023-04-03T00:15:20;6.13;;;5.63;;
18360;SDS011;9308;48.550;9.108;2023-04-03T00:17:46;5.43;;;5.00;;
18360;SDS011;9308;48.550;9.108;2023-04-03T00:20:11;5.90;;;5.40;;
18360;SDS011;9308;48.550;9.108;2023-04-03T00:22:37;6.17;;;5.67;;
18360;SDS011;9308;48.550;9.108;2023-04-03T00:25:03;6.67;;;5.73;;
18360;SDS011;9308;48.550;9.108;2023-04-03T00:27:28;7.87;;;7.17;;
18360;SDS011;9308;48.550;9.108;2023-04-03T00:29:54;6.60;;;6.10;;
18360;SDS011;9308;48.550;9.108;2023-04-03T00:32:19;5.60;;;5.20;;
18360;SDS011;9308;48.550;9.108;2023-04-03T00:34:45;6.90;;;6.30;;
18360;SDS011;9308;48.550;9.108;2023-04-03T00:37:10;5.80;;;5.30;;
18360;SDS011;9308;48.550;9.108;2023-04-03T00:39:35;6.10;;;5.60;;
18360;SDS011;9308;48.550;9.108;2023-04-03T00:42:01;6.83;;;6.33;;
18360;SDS011;9308;48.550;9.108;2023-04-03T00:46:57;6.67;;;6.17;;
18360;SDS011;9308;48.550;9.108;2023-04-03T00:49:23;6.27;;;5.87;;
18360;SDS011;9308;48.550;9.108;2023-04-03T00:51:49;7.13;;;6.47;;
18360;SDS011;9308;48.550;9.108;2023-04-03T00:54:14;6.47;;;5.97;;
18360;SDS011;9308;48.550;9.108;2023-04-03T00:56:40;5.57;;;5.10;;
18360;SDS011;9308;48.550;9.108;2023-04-03T00:59:17;6.13;;;5.63;;
18360;SDS011;9308;48.550;9.108;2023-04-03T01:01:48;6.23;;;5.73;;
18360;SDS011;9308;48.550;9.108;2023-04-03T01:04:26;6.43;;;5.93;;
18360;SDS011;9308;48.550;9.108;2023-04-03T01:06:53;6.03;;;5.63;;
18360;SDS011;9308;48.550;9.108;2023-04-03T01:09:21;6.23;;;5.73;;
18360;SDS011;9308;48.550;9.108;2023-04-03T01:11:47;6.70;;;6.10;;
18360;SDS011;9308;48.550;9.108;2023-04-03T01:14:12;6.30;;;5.70;;
18360;SDS011;9308;48.550;9.108;2023-04-03T01:16:38;6.33;;;5.73;;
18360;SDS011;9308;48.550;9.108;2023-04-03T01:19:05;7.30;;;6.37;;
18360;SDS011;9308;48.550;9.108;2023-04-03T01:21:41;6.87;;;6.17;;
18360;SDS011;9308;48.550;9.108;2023-04-03T01:26:57;6.47;;;5.97;;
18360;SDS011;9308;48.550;9.108;2023-04-03T01:29:23;6.83;;;6.00;;
18360;SDS011;9308;48.550;9.108;2023-04-03T01:34:21;6.37;;;5.87;;
18360;SDS011;9308;48.550;9.108;2023-04-03T01:36:47;6.87;;;6.40;;
18360;SDS011;9308;48.550;9.108;2023-04-03T01:39:13;6.80;;;5.90;;
18360;SDS011;9308;48.550;9.108;2023-04-03T01:41:38;6.63;;;5.83;;
18360;SDS011;9308;48.550;9.108;2023-04-03T01:44:04;6.53;;;6.03;;
18360;SDS011;9308;48.550;9.108;2023-04-03T01:46:30;6.20;;;5.70;;
18360;SDS011;9308;48.550;9.108;2023-04-03T01:48:56;6.30;;;5.80;;
18360;SDS011;9308;48.550;9.108;2023-04-03T01:51:22;7.20;;;6.17;;
18360;SDS011;9308;48.550;9.108;2023-04-03T01:53:47;6.57;;;5.90;;
18360;SDS011;9308;48.550;9.108;2023-04-03T01:56:12;7.03;;;5.77;;
18360;SDS011;9308;48.550;9.108;2023-04-03T01:58:38;6.00;;;5.60;;
18360;SDS011;9308;48.550;9.108;2023-04-03T02:01:04;6.83;;;6.23;;
18360;SDS011;9308;48.550;9.108;2023-04-03T02:03:29;7.07;;;6.50;;
18360;SDS011;9308;48.550;9.108;2023-04-03T02:05:56;6.70;;;6.20;;
18360;SDS011;9308;48.550;9.108;2023-04-03T02:08:21;5.40;;;4.90;;
18360;SDS011;9308;48.550;9.108;2023-04-03T02:10:47;6.17;;;5.77;;
18360;SDS011;9308;48.550;9.108;2023-04-03T02:13:14;6.73;;;6.00;;
18360;SDS011;9308;48.550;9.108;2023-04-03T02:15:40;7.20;;;6.60;;
18360;SDS011;9308;48.550;9.108;2023-04-03T02:18:06;6.47;;;5.97;;
18360;SDS011;9308;48.550;9.108;2023-04-03T02:20:32;6.60;;;5.90;;
18360;SDS011;9308;48.550;9.108;2023-04-03T02:22:58;6.80;;;6.10;;
18360;SDS011;9308;48.550;9.108;2023-04-03T02:25:24;6.40;;;5.90;;
18360;SDS011;9308;48.550;9.108;2023-04-03T02:27:50;6.30;;;5.70;;
18360;SDS011;9308;48.550;9.108;2023-04-03T02:30:15;6.60;;;6.10;;
18360;SDS011;9308;48.550;9.108;2023-04-03T02:32:41;5.33;;;5.03;;
18360;SDS011;9308;48.550;9.108;2023-04-03T02:35:07;6.03;;;5.47;;
18360;SDS011;9308;48.550;9.108;2023-04-03T02:37:33;6.50;;;5.90;;
18360;SDS011;9308;48.550;9.108;2023-04-03T02:39:59;6.70;;;6.13;;
18360;SDS011;9308;48.550;9.108;2023-04-03T02:42:25;6.80;;;6.30;;
18360;SDS011;9308;48.550;9.108;2023-04-03T02:44:51;6.33;;;5.83;;
18360;SDS011;9308;48.550;9.108;2023-04-03T02:47:16;7.73;;;6.43;;
18360;SDS011;9308;48.550;9.108;2023-04-03T02:49:42;6.40;;;5.80;;
18360;SDS011;9308;48.550;9.108;2023-04-03T02:52:10;6.97;;;6.33;;
18360;SDS011;9308;48.550;9.108;2023-04-03T02:54:35;6.27;;;5.77;;
18360;SDS011;9308;48.550;9.108;2023-04-03T02:57:00;6.30;;;5.80;;
18360;SDS011;9308;48.550;9.108;2023-04-03T02:59:26;5.90;;;5.50;;
18360;SDS011;9308;48.550;9.108;2023-04-03T03:01:51;6.60;;;5.90;;
18360;SDS011;9308;48.550;9.108;2023-04-03T03:04:17;6.93;;;6.33;;
18360;SDS011;9308;48.550;9.108;2023-04-03T03:06:43;6.57;;;5.97;;
18360;SDS011;9308;48.550;9.108;2023-04-03T03:09:08;5.93;;;5.53;;
18360;SDS011;9308;48.550;9.108;2023-04-03T03:11:34;6.63;;;6.03;;
18360;SDS011;9308;48.550;9.108;2023-04-03T03:13:59;7.10;;;6.50;;
18360;SDS011;9308;48.550;9.108;2023-04-03T03:16:25;6.73;;;6.10;;
18360;SDS011;9308;48.550;9.108;2023-04-03T03:18:50;6.40;;;5.90;;
18360;SDS011;9308;48.550;9.108;2023-04-03T03:21:16;7.40;;;6.07;;
18360;SDS011;9308;48.550;9.108;2023-04-03T03:23:42;6.07;;;5.53;;
18360;SDS011;9308;48.550;9.108;2023-04-03T03:26:08;6.63;;;6.07;;
18360;SDS011;9308;48.550;9.108;2023-04-03T03:28:35;8.77;;;6.67;;
18360;SDS011;9308;48.550;9.108;2023-04-03T03:31:02;6.00;;;5.60;;
18360;SDS011;9308;48.550;9.108;2023-04-03T03:33:28;5.63;;;5.13;;
18360;SDS011;9308;48.550;9.108;2023-04-03T03:35:53;6.70;;;6.10;;
18360;SDS011;9308;48.550;9.108;2023-04-03T03:38:20;6.40;;;5.90;;
18360;SDS011;9308;48.550;9.108;2023-04-03T03:40:49;6.20;;;5.80;;
18360;SDS011;9308;48.550;9.108;2023-04-03T03:43:15;6.20;;;5.70;;
18360;SDS011;9308;48.550;9.108;2023-04-03T03:45:41;6.00;;;5.60;;
18360;SDS011;9308;48.550;9.108;2023-04-03T03:48:07;6.87;;;6.27;;
18360;SDS011;9308;48.550;9.108;2023-04-03T03:50:32;6.17;;;5.63;;
18360;SDS011;9308;48.550;9.108;2023-04-03T03:52:58;6.57;;;6.10;;
18360;SDS011;9308;48.550;9.108;2023-04-03T03:55:23;6.27;;;5.77;;
18360;SDS011;9308;48.550;9.108;2023-04-03T03:57:49;6.37;;;5.87;;
18360;SDS011;9308;48.550;9.108;2023-04-03T04:00:14;5.70;;;5.20;;
18360;SDS011;9308;48.550;9.108;2023-04-03T04:02:40;7.47;;;5.90;;
18360;SDS011;9308;48.550;9.108;2023-04-03T04:05:06;5.93;;;5.53;;
18360;SDS011;9308;48.550;9.108;2023-04-03T04:07:31;5.90;;;5.50;;
18360;SDS011;9308;48.550;9.108;2023-04-03T04:09:57;6.03;;;5.53;;
18360;SDS011;9308;48.550;9.108;2023-04-03T04:12:22;6.97;;;6.27;;
18360;SDS011;9308;48.550;9.108;2023-04-03T04:14:48;5.73;;;5.33;;
18360;SDS011;9308;48.550;9.108;2023-04-03T04:17:13;6.50;;;6.00;;
18360;SDS011;9308;48.550;9.108;2023-04-03T04:19:39;6.20;;;5.70;;
18360;SDS011;9308;48.550;9.108;2023-04-03T04:22:05;6.37;;;5.87;;
18360;SDS011;9308;48.550;9.108;2023-04-03T04:24:30;6.50;;;6.00;;
18360;SDS011;9308;48.550;9.108;2023-04-03T04:26:56;6.73;;;6.13;;
18360;SDS011;9308;48.550;9.108;2023-04-03T04:29:21;6.20;;;5.80;;
18360;SDS011;9308;48.550;9.108;2023-04-03T04:31:47;6.10;;;5.57;;
18360;SDS011;9308;48.550;9.108;2023-04-03T04:34:12;6.27;;;5.50;;
18360;SDS011;9308;48.550;9.108;2023-04-03T04:36:38;5.83;;;5.43;;
18360;SDS011;9308;48.550;9.108;2023-04-03T04:39:04;6.30;;;5.80;;
18360;SDS011;9308;48.550;9.108;2023-04-03T04:41:30;6.13;;;5.63;;
18360;SDS011;9308;48.550;9.108;2023-04-03T04:43:56;6.67;;;6.00;;
18360;SDS011;9308;48.550;9.108;2023-04-03T04:46:22;6.67;;;6.07;;
18360;SDS011;9308;48.550;9.108;2023-04-03T04:48:47;5.97;;;5.40;;
18360;SDS011;9308;48.550;9.108;2023-04-03T04:51:13;6.10;;;5.60;;
18360;SDS011;9308;48.550;9.108;2023-04-03T04:53:39;6.43;;;5.70;;
18360;SDS011;9308;48.550;9.108;2023-04-03T04:56:05;6.67;;;6.07;;
18360;SDS011;9308;48.550;9.108;2023-04-03T04:58:31;6.00;;;5.50;;
18360;SDS011;9308;48.550;9.108;2023-04-03T05:01:03;6.10;;;5.60;;
18360;SDS011;9308;48.550;9.108;2023-04-03T05:03:30;5.90;;;5.40;;
18360;SDS011;9308;48.550;9.108;2023-04-03T05:05:56;6.50;;;5.90;;
18360;SDS011;9308;48.550;9.108;2023-04-03T05:08:22;6.13;;;5.67;;
18360;SDS011;9308;48.550;9.108;2023-04-03T05:10:47;5.80;;;5.40;;
18360;SDS011;9308;48.550;9.108;2023-04-03T05:13:13;6.30;;;5.80;;
18360;SDS011;9308;48.550;9.108;2023-04-03T05:15:39;6.10;;;5.60;;
18360;SDS011;9308;48.550;9.108;2023-04-03T05:18:04;6.30;;;5.83;;
18360;SDS011;9308;48.550;9.108;2023-04-03T05:20:30;5.97;;;5.57;;
18360;SDS011;9308;48.550;9.108;2023-04-03T05:22:56;5.40;;;5.00;;
18360;SDS011;9308;48.550;9.108;2023-04-03T05:25:22;5.80;;;5.40;;
18360;SDS011;9308;48.550;9.108;2023-04-03T05:27:47;6.17;;;5.57;;
18360;SDS011;9308;48.550;9.108;2023-04-03T05:30:13;5.50;;;5.00;;
18360;SDS011;9308;48.550;9.108;2023-04-03T05:32:39;5.90;;;5.47;;
18360;SDS011;9308;48.550;9.108;2023-04-03T05:35:05;5.80;;;5.40;;
18360;SDS011;9308;48.550;9.108;2023-04-03T05:37:32;5.03;;;4.63;;
18360;SDS011;9308;48.550;9.108;2023-04-03T05:39:58;6.13;;;5.37;;
18360;SDS011;9308;48.550;9.108;2023-04-03T05:42:23;5.50;;;5.10;;
18360;SDS011;9308;48.550;9.108;2023-04-03T05:44:49;5.83;;;5.23;;
18360;SDS011;9308;48.550;9.108;2023-04-03T05:47:15;5.20;;;4.80;;
18360;SDS011;9308;48.550;9.108;2023-04-03T05:49:41;4.80;;;4.50;;
18360;SDS011;9308;48.550;9.108;2023-04-03T05:52:26;4.83;;;4.53;;
18360;SDS011;9308;48.550;9.108;2023-04-03T05:54:53;4.60;;;4.27;;
18360;SDS011;9308;48.550;9.108;2023-04-03T05:57:19;4.73;;;4.43;;
18360;SDS011;9308;48.550;9.108;2023-04-03T05:59:44;5.30;;;4.90;;
18360;SDS011;9308;48.550;9.108;2023-04-03T06:02:21;4.30;;;4.00;;
18360;SDS011;9308;48.550;9.108;2023-04-03T06:04:48;4.27;;;3.97;;
18360;SDS011;9308;48.550;9.108;2023-04-03T06:07:14;4.40;;;4.00;;
18360;SDS011;9308;48.550;9.108;2023-04-03T06:09:41;4.83;;;4.53;;
18360;SDS011;9308;48.550;9.108;2023-04-03T06:12:07;4.73;;;4.43;;
18360;SDS011;9308;48.550;9.108;2023-04-03T06:14:33;6.40;;;4.60;;
18360;SDS011;9308;48.550;9.108;2023-04-03T06:16:59;3.80;;;3.60;;
18360;SDS011;9308;48.550;9.108;2023-04-03T06:19:25;4.50;;;4.20;;
18360;SDS011;9308;48.550;9.108;2023-04-03T06:21:51;4.23;;;3.93;;
18360;SDS011;9308;48.550;9.108;2023-04-03T06:24:17;4.53;;;4.23;;
18360;SDS011;9308;48.550;9.108;2023-04-03T06:26:42;3.90;;;3.70;;
18360;SDS011;9308;48.550;9.108;2023-04-03T06:29:08;4.60;;;4.20;;
18360;SDS011;9308;48.550;9.108;2023-04-03T06:31:34;5.23;;;4.43;;
18360;SDS011;9308;48.550;9.108;2023-04-03T06:34:01;4.63;;;4.33;;
18360;SDS011;9308;48.550;9.108;2023-04-03T06:36:27;4.20;;;3.90;;
18360;SDS011;9308;48.550;9.108;2023-04-03T06:38:52;4.43;;;4.13;;
18360;SDS011;9308;48.550;9.108;2023-04-03T06:41:18;4.23;;;3.93;;
18360;SDS011;9308;48.550;9.108;2023-04-03T06:43:44;4.47;;;4.17;;
18360;SDS011;9308;48.550;9.108;2023-04-03T06:46:14;4.13;;;3.73;;
18360;SDS011;9308;48.550;9.108;2023-04-03T06:48:40;3.90;;;3.67;;
18360;SDS011;9308;48.550;9.108;2023-04-03T06:51:07;4.93;;;4.50;;
18360;SDS011;9308;48.550;9.108;2023-04-03T06:53:39;4.03;;;3.73;;
18360;SDS011;9308;48.550;9.108;2023-04-03T06:56:04;4.40;;;4.10;;
18360;SDS011;9308;48.550;9.108;2023-04-03T06:58:30;4.50;;;4.10;;
18360;SDS011;9308;48.550;9.108;2023-04-03T07:00:56;6.57;;;4.00;;
18360;SDS011;9308;48.550;9.108;2023-04-03T07:03:21;4.80;;;4.40;;
18360;SDS011;9308;48.550;9.108;2023-04-03T07:05:46;4.80;;;4.40;;
18360;SDS011;9308;48.550;9.108;2023-04-03T07:08:12;4.50;;;4.20;;
18360;SDS011;9308;48.550;9.108;2023-04-03T07:10:37;4.57;;;4.27;;
18360;SDS011;9308;48.550;9.108;2023-04-03T07:13:03;4.40;;;4.10;;
18360;SDS011;9308;48.550;9.108;2023-04-03T07:15:28;4.83;;;4.43;;
18360;SDS011;9308;48.550;9.108;2023-04-03T07:17:54;4.53;;;4.23;;
18360;SDS011;9308;48.550;9.108;2023-04-03T07:20:20;4.50;;;4.20;;
18360;SDS011;9308;48.550;9.108;2023-04-03T07:22:46;5.40;;;4.17;;
18360;SDS011;9308;48.550;9.108;2023-04-03T07:25:11;4.60;;;4.30;;
18360;SDS011;9308;48.550;9.108;2023-04-03T07:27:37;3.80;;;3.60;;
18360;SDS011;9308;48.550;9.108;2023-04-03T07:30:03;5.00;;;4.50;;
18360;SDS011;9308;48.550;9.108;2023-04-03T07:32:28;5.20;;;4.80;;
18360;SDS011;9308;48.550;9.108;2023-04-03T07:34:54;4.27;;;3.93;;
18360;SDS011;9308;48.550;9.108;2023-04-03T07:37:20;4.37;;;4.00;;
18360;SDS011;9308;48.550;9.108;2023-04-03T07:39:45;4.23;;;3.97;;
18360;SDS011;9308;48.550;9.108;2023-04-03T07:42:11;3.67;;;3.47;;
18360;SDS011;9308;48.550;9.108;2023-04-03T07:44:37;4.70;;;4.30;;
18360;SDS011;9308;48.550;9.108;2023-04-03T07:47:03;4.83;;;4.43;;
18360;SDS011;9308;48.550;9.108;2023-04-03T07:49:28;4.20;;;3.90;;
18360;SDS011;9308;48.550;9.108;2023-04-03T07:51:54;4.73;;;4.13;;
18360;SDS011;9308;48.550;9.108;2023-04-03T07:54:19;3.83;;;3.60;;
18360;SDS011;9308;48.550;9.108;2023-04-03T07:56:45;4.60;;;4.20;;
18360;SDS011;9308;48.550;9.108;2023-04-03T07:59:10;5.83;;;4.10;;
18360;SDS011;9308;48.550;9.108;2023-04-03T08:01:36;4.40;;;4.03;;
18360;SDS011;9308;48.550;9.108;2023-04-03T08:04:02;6.03;;;3.97;;
18360;SDS011;9308;48.550;9.108;2023-04-03T08:06:31;4.73;;;4.20;;
18360;SDS011;9308;48.550;9.108;2023-04-03T08:09:04;4.80;;;4.40;;
18360;SDS011;9308;48.550;9.108;2023-04-03T08:11:33;4.50;;;4.10;;
18360;SDS011;9308;48.550;9.108;2023-04-03T08:14:04;3.87;;;3.63;;
18360;SDS011;9308;48.550;9.108;2023-04-03T08:16:31;4.27;;;3.87;;
18360;SDS011;9308;48.550;9.108;2023-04-03T08:19:01;4.07;;;3.50;;
18360;SDS011;9308;48.550;9.108;2023-04-03T08:21:30;4.33;;;4.03;;
18360;SDS011;9308;48.550;9.108;2023-04-03T08:24:02;4.27;;;3.87;;
18360;SDS011;9308;48.550;9.108;2023-04-03T08:26:31;4.40;;;4.10;;
18360;SDS011;9308;48.550;9.108;2023-04-03T08:29:02;4.13;;;3.83;;
18360;SDS011;9308;48.550;9.108;2023-04-03T08:31:31;4.70;;;4.40;;
18360;SDS011;9308;48.550;9.108;2023-04-03T08:33:59;4.37;;;4.07;;
18360;SDS011;9308;48.550;9.108;2023-04-03T08:36:28;3.93;;;3.70;;
18360;SDS011;9308;48.550;9.108;2023-04-03T08:38:55;4.63;;;4.33;;
18360;SDS011;9308;48.550;9.108;2023-04-03T08:44:17;5.10;;;4.50;;
18360;SDS011;9308;48.550;9.108;2023-04-03T08:47:03;4.67;;;4.27;;
18360;SDS011;9308;48.550;9.108;2023-04-03T08:50:00;4.30;;;4.00;;
18360;SDS011;9308;48.550;9.108;2023-04-03T08:52:36;4.03;;;3.53;;
18360;SDS011;9308;48.550;9.108;2023-04-03T08:58:00;3.87;;;3.47;;
18360;SDS011;9308;48.550;9.108;2023-04-03T09:00:37;4.23;;;4.03;;
18360;SDS011;9308;48.550;9.108;2023-04-03T09:03:13;3.97;;;3.67;;
18360;SDS011;9308;48.550;9.108;2023-04-03T09:08:24;4.07;;;3.80;;
18360;SDS011;9308;48.550;9.108;2023-04-03T09:10:59;4.30;;;4.00;;
18360;SDS011;9308;48.550;9.108;2023-04-03T09:21:59;4.60;;;4.20;;
18360;SDS011;9308;48.550;9.108;2023-04-03T09:24:47;4.87;;;4.47;;
18360;SDS011;9308;48.550;9.108;2023-04-03T09:27:25;4.30;;;3.97;;
18360;SDS011;9308;48.550;9.108;2023-04-03T09:29:55;5.30;;;5.00;;
18360;SDS011;9308;48.550;9.108;2023-04-03T09:32:35;5.00;;;4.70;;
18360;SDS011;9308;48.550;9.108;2023-04-03T09:38:00;4.17;;;3.90;;
18360;SDS011;9308;48.550;9.108;2023-04-03T09:40:32;5.20;;;4.80;;
18360;SDS011;9308;48.550;9.108;2023-04-03T09:43:22;3.93;;;3.73;;
18360;SDS011;9308;48.550;9.108;2023-04-03T09:45:56;4.90;;;4.50;;
18360;SDS011;9308;48.550;9.108;2023-04-03T09:49:03;4.37;;;4.10;;
18360;SDS011;9308;48.550;9.108;2023-04-03T09:51:34;4.00;;;3.70;;
18360;SDS011;9308;48.550;9.108;2023-04-03T09:57:14;4.60;;;4.30;;
18360;SDS011;9308;48.550;9.108;2023-04-03T10:04:52;3.97;;;3.67;;
18360;SDS011;9308;48.550;9.108;2023-04-03T10:12:46;5.27;;;4.50;;
18360;SDS011;9308;48.550;9.108;2023-04-03T10:15:13;4.53;;;4.23;;
18360;SDS011;9308;48.550;9.108;2023-04-03T10:17:53;4.33;;;4.07;;
18360;SDS011;9308;48.550;9.108;2023-04-03T10:23:14;4.77;;;4.40;;
18360;SDS011;9308;48.550;9.108;2023-04-03T10:28:31;5.23;;;4.70;;
18360;SDS011;9308;48.550;9.108;2023-04-03T10:31:11;4.37;;;4.07;;
18360;SDS011;9308;48.550;9.108;2023-04-03T10:40:34;4.00;;;3.80;;
18360;SDS011;9308;48.550;9.108;2023-04-03T10:43:09;5.73;;;3.93;;
18360;SDS011;9308;48.550;9.108;2023-04-03T10:56:50;3.67;;;3.47;;
18360;SDS011;9308;48.550;9.108;2023-04-03T10:59:32;3.97;;;3.67;;
18360;SDS011;9308;48.550;9.108;2023-04-03T11:02:18;3.60;;;3.40;;
18360;SDS011;9308;48.550;9.108;2023-04-03T11:05:15;4.30;;;4.00;;
18360;SDS011;9308;48.550;9.108;2023-04-03T11:07:49;4.17;;;3.87;;
18360;SDS011;9308;48.550;9.108;2023-04-03T11:10:22;3.90;;;3.60;;
18360;SDS011;9308;48.550;9.108;2023-04-03T11:12:56;4.07;;;3.77;;
18360;SDS011;9308;48.550;9.108;2023-04-03T11:15:27;3.67;;;3.33;;
18360;SDS011;9308;48.550;9.108;2023-04-03T11:18:00;3.30;;;3.10;;
18360;SDS011;9308;48.550;9.108;2023-04-03T11:20:29;3.47;;;3.17;;
18360;SDS011;9308;48.550;9.108;2023-04-03T11:23:20;4.07;;;3.77;;
18360;SDS011;9308;48.550;9.108;2023-04-03T11:25:50;4.17;;;3.87;;
18360;SDS011;9308;48.550;9.108;2023-04-03T11:28:18;3.50;;;3.30;;
18360;SDS011;9308;48.550;9.108;2023-04-03T11:36:10;3.63;;;3.43;;
18360;SDS011;9308;48.550;9.108;2023-04-03T11:38:56;3.87;;;3.57;;
18360;SDS011;9308;48.550;9.108;2023-04-03T11:41:29;3.53;;;3.23;;
18360;SDS011;9308;48.550;9.108;2023-04-03T11:43:57;5.63;;;5.20;;
18360;SDS011;9308;48.550;9.108;2023-04-03T11:57:45;4.57;;;4.30;;
18360;SDS011;9308;48.550;9.108;2023-04-03T12:05:57;4.10;;;3.80;;
18360;SDS011;9308;48.550;9.108;2023-04-03T12:21:22;3.50;;;3.30;;
18360;SDS011;9308;48.550;9.108;2023-04-03T12:23:56;3.27;;;3.07;;
18360;SDS011;9308;48.550;9.108;2023-04-03T12:32:06;3.80;;;2.93;;
18360;SDS011;9308;48.550;9.108;2023-04-03T12:35:00;3.77;;;3.47;;
18360;SDS011;9308;48.550;9.108;2023-04-03T12:46:04;4.43;;;2.87;;
18360;SDS011;9308;48.550;9.108;2023-04-03T12:48:46;3.83;;;3.53;;
18360;SDS011;9308;48.550;9.108;2023-04-03T12:51:21;4.00;;;3.70;;
18360;SDS011;9308;48.550;9.108;2023-04-03T12:53:52;4.97;;;4.53;;
18360;SDS011;9308;48.550;9.108;2023-04-03T12:56:26;5.20;;;4.70;;
18360;SDS011;9308;48.550;9.108;2023-04-03T12:58:54;3.83;;;3.53;;
18360;SDS011;9308;48.550;9.108;2023-04-03T13:01:37;5.00;;;4.50;;
18360;SDS011;9308;48.550;9.108;2023-04-03T13:04:03;12.03;;;9.87;;
18360;SDS011;9308;48.550;9.108;2023-04-03T13:06:33;5.63;;;5.03;;
18360;SDS011;9308;48.550;9.108;2023-04-03T13:09:03;3.80;;;3.50;;
18360;SDS011;9308;48.550;9.108;2023-04-03T13:11:32;3.50;;;3.30;;
18360;SDS011;9308;48.550;9.108;2023-04-03T13:14:03;4.07;;;3.77;;
18360;SDS011;9308;48.550;9.108;2023-04-03T13:16:31;4.10;;;3.70;;
18360;SDS011;9308;48.550;9.108;2023-04-03T13:18:58;4.67;;;3.63;;
18360;SDS011;9308;48.550;9.108;2023-04-03T13:21:25;6.53;;;3.43;;
18360;SDS011;9308;48.550;9.108;2023-04-03T13:23:58;4.13;;;3.77;;
18360;SDS011;9308;48.550;9.108;2023-04-03T13:26:27;3.43;;;3.20;;
18360;SDS011;9308;48.550;9.108;2023-04-03T13:28:57;4.27;;;3.33;;
18360;SDS011;9308;48.550;9.108;2023-04-03T13:31:37;3.37;;;3.00;;
18360;SDS011;9308;48.550;9.108;2023-04-03T13:34:10;3.00;;;2.80;;
18360;SDS011;9308;48.550;9.108;2023-04-03T13:36:39;3.30;;;3.10;;
18360;SDS011;9308;48.550;9.108;2023-04-03T13:41:36;3.20;;;3.00;;
18360;SDS011;9308;48.550;9.108;2023-04-03T13:46:48;3.60;;;3.30;;
18360;SDS011;9308;48.550;9.108;2023-04-03T13:49:37;3.43;;;3.23;;
18360;SDS011;9308;48.550;9.108;2023-04-03T13:54:53;4.13;;;3.83;;
18360;SDS011;9308;48.550;9.108;2023-04-03T13:57:22;3.57;;;3.37;;
18360;SDS011;9308;48.550;9.108;2023-04-03T13:59:48;4.33;;;4.03;;
18360;SDS011;9308;48.550;9.108;2023-04-03T14:02:16;5.17;;;3.90;;
18360;SDS011;9308;48.550;9.108;2023-04-03T14:04:55;3.87;;;3.67;;
18360;SDS011;9308;48.550;9.108;2023-04-03T14:07:26;7.10;;;6.60;;
18360;SDS011;9308;48.550;9.108;2023-04-03T14:09:52;4.30;;;4.00;;
18360;SDS011;9308;48.550;9.108;2023-04-03T14:14:43;3.90;;;3.60;;
18360;SDS011;9308;48.550;9.108;2023-04-03T14:17:19;3.57;;;3.30;;
18360;SDS011;9308;48.550;9.108;2023-04-03T14:19:46;3.67;;;3.33;;
18360;SDS011;9308;48.550;9.108;2023-04-03T14:24:47;4.10;;;3.87;;
18360;SDS011;9308;48.550;9.108;2023-04-03T14:27:15;3.27;;;3.07;;
18360;SDS011;9308;48.550;9.108;2023-04-03T14:29:50;4.33;;;3.40;;
18360;SDS011;9308;48.550;9.108;2023-04-03T14:32:17;5.03;;;3.40;;
18360;SDS011;9308;48.550;9.108;2023-04-03T14:34:44;3.60;;;3.30;;
18360;SDS011;9308;48.550;9.108;2023-04-03T14:37:14;2.93;;;2.80;;
18360;SDS011;9308;48.550;9.108;2023-04-03T14:39:45;3.80;;;3.50;;
18360;SDS011;9308;48.550;9.108;2023-04-03T14:42:13;3.17;;;2.97;;
18360;SDS011;9308;48.550;9.108;2023-04-03T14:44:40;4.00;;;3.70;;
18360;SDS011;9308;48.550;9.108;2023-04-03T14:47:09;3.30;;;3.10;;
18360;SDS011;9308;48.550;9.108;2023-04-03T14:49:36;3.10;;;2.90;;
18360;SDS011;9308;48.550;9.108;2023-04-03T14:52:01;4.43;;;4.03;;
18360;SDS011;9308;48.550;9.108;2023-04-03T14:54:27;4.10;;;3.80;;
18360;SDS011;9308;48.550;9.108;2023-04-03T14:56:54;3.77;;;3.57;;
18360;SDS011;9308;48.550;9.108;2023-04-03T14:59:21;3.87;;;3.57;;
18360;SDS011;9308;48.550;9.108;2023-04-03T15:01:47;3.43;;;3.23;;
18360;SDS011;9308;48.550;9.108;2023-04-03T15:04:14;5.27;;;4.00;;
18360;SDS011;9308;48.550;9.108;2023-04-03T15:06:41;9.80;;;8.80;;
18360;SDS011;9308;48.550;9.108;2023-04-03T15:09:26;6.20;;;4.73;;
18360;SDS011;9308;48.550;9.108;2023-04-03T15:11:52;4.43;;;4.13;;
18360;SDS011;9308;48.550;9.108;2023-04-03T15:14:19;8.23;;;6.33;;
18360;SDS011;9308;48.550;9.108;2023-04-03T15:16:45;3.73;;;3.40;;
18360;SDS011;9308;48.550;9.108;2023-04-03T15:19:10;3.63;;;3.23;;
18360;SDS011;9308;48.550;9.108;2023-04-03T15:21:37;4.20;;;3.90;;
18360;SDS011;9308;48.550;9.108;2023-04-03T15:24:03;3.93;;;3.53;;
18360;SDS011;9308;48.550;9.108;2023-04-03T15:26:29;5.10;;;4.70;;
18360;SDS011;9308;48.550;9.108;2023-04-03T15:28:54;4.00;;;3.70;;
18360;SDS011;9308;48.550;9.108;2023-04-03T15:31:20;3.37;;;3.07;;
18360;SDS011;9308;48.550;9.108;2023-04-03T15:33:45;3.50;;;3.30;;
18360;SDS011;9308;48.550;9.108;2023-04-03T15:36:11;3.47;;;3.27;;
18360;SDS011;9308;48.550;9.108;2023-04-03T15:38:36;4.60;;;4.30;;
18360;SDS011;9308;48.550;9.108;2023-04-03T15:41:03;4.17;;;3.77;;
18360;SDS011;9308;48.550;9.108;2023-04-03T15:43:28;4.67;;;4.03;;
18360;SDS011;9308;48.550;9.108;2023-04-03T15:45:58;6.37;;;3.83;;
18360;SDS011;9308;48.550;9.108;2023-04-03T15:48:24;4.93;;;4.50;;
18360;SDS011;9308;48.550;9.108;2023-04-03T15:50:50;4.53;;;4.10;;
18360;SDS011;9308;48.550;9.108;2023-04-03T15:53:16;4.17;;;3.87;;
18360;SDS011;9308;48.550;9.108;2023-04-03T15:55:41;4.40;;;4.10;;
18360;SDS011;9308;48.550;9.108;2023-04-03T15:58:07;4.80;;;4.20;;
18360;SDS011;9308;48.550;9.108;2023-04-03T16:00:33;6.43;;;5.83;;
18360;SDS011;9308;48.550;9.108;2023-04-03T16:03:02;4.20;;;3.90;;
18360;SDS011;9308;48.550;9.108;2023-04-03T16:05:30;4.53;;;3.33;;
18360;SDS011;9308;48.550;9.108;2023-04-03T16:07:57;4.87;;;3.83;;
18360;SDS011;9308;48.550;9.108;2023-04-03T16:10:25;4.00;;;3.70;;
18360;SDS011;9308;48.550;9.108;2023-04-03T16:12:51;4.47;;;3.80;;
18360;SDS011;9308;48.550;9.108;2023-04-03T16:15:16;3.40;;;3.00;;
18360;SDS011;9308;48.550;9.108;2023-04-03T16:17:42;5.77;;;4.10;;
18360;SDS011;9308;48.550;9.108;2023-04-03T16:20:08;4.07;;;3.67;;
18360;SDS011;9308;48.550;9.108;2023-04-03T16:22:35;4.70;;;3.40;;
18360;SDS011;9308;48.550;9.108;2023-04-03T16:25:01;4.20;;;3.10;;
18360;SDS011;9308;48.550;9.108;2023-04-03T16:27:26;3.30;;;3.10;;
18360;SDS011;9308;48.550;9.108;2023-04-03T16:29:55;3.30;;;3.10;;
18360;SDS011;9308;48.550;9.108;2023-04-03T16:32:25;4.30;;;3.10;;
18360;SDS011;9308;48.550;9.108;2023-04-03T16:34:52;7.43;;;6.77;;
18360;SDS011;9308;48.550;9.108;2023-04-03T16:37:18;6.90;;;6.20;;
18360;SDS011;9308;48.550;9.108;2023-04-03T16:39:43;6.20;;;3.47;;
18360;SDS011;9308;48.550;9.108;2023-04-03T16:42:09;3.43;;;3.00;;
18360;SDS011;9308;48.550;9.108;2023-04-03T16:44:35;3.17;;;2.97;;
18360;SDS011;9308;48.550;9.108;2023-04-03T16:47:01;3.13;;;2.90;;
18360;SDS011;9308;48.550;9.108;2023-04-03T16:49:26;6.30;;;3.30;;
18360;SDS011;9308;48.550;9.108;2023-04-03T16:51:57;3.30;;;3.10;;
18360;SDS011;9308;48.550;9.108;2023-04-03T16:54:22;3.57;;;3.20;;
18360;SDS011;9308;48.550;9.108;2023-04-03T16:56:48;3.53;;;3.33;;
18360;SDS011;9308;48.550;9.108;2023-04-03T16:59:13;3.20;;;2.90;;
18360;SDS011;9308;48.550;9.108;2023-04-03T17:01:39;3.53;;;3.30;;
18360;SDS011;9308;48.550;9.108;2023-04-03T17:04:06;4.90;;;3.90;;
18360;SDS011;9308;48.550;9.108;2023-04-03T17:06:31;3.90;;;3.50;;
18360;SDS011;9308;48.550;9.108;2023-04-03T17:08:57;7.17;;;3.70;;
18360;SDS011;9308;48.550;9.108;2023-04-03T17:11:22;3.90;;;3.60;;
18360;SDS011;9308;48.550;9.108;2023-04-03T17:13:48;3.37;;;3.17;;